Time;durP1;ratioP1;P1;durP2;ratioP2;P2;SDS_P1;SDS_P2;PMS_P1;PMS_P2;Temp;Humidity;BMP_temperature;BMP_pressure;BME280_temperature;BME280_humidity;BME280_pressure;Samples;Min_cycle;Max_cycle;Signal;HPM_P1;HPM_P2
2022/05/13 00:01:11;;;;;;;10.47;7.50;;;;;;;22.04;38.62;95404.28;4931836;29;20571;-76
2022/05/13 00:03:39;;;;;;;17.00;7.57;;;;;;;21.84;38.54;95416.34;4932136;29;20450;-74
2022/05/13 00:06:07;;;;;;;10.97;6.40;;;;;;;21.81;38.18;95395.66;4931846;29;20656;-71
2022/05/13 00:08:33;;;;;;;12.20;7.57;;;;;;;21.90;38.59;95408.97;4932460;29;20452;-75
2022/05/13 00:11:02;;;;;;;12.33;7.53;;;;;;;21.91;38.59;95410.56;4932094;29;20664;-71
2022/05/13 00:13:29;;;;;;;10.67;7.40;;;;;;;22.02;37.80;95406.50;4932095;29;20200;-73
2022/05/13 00:15:56;;;;;;;11.23;7.57;;;;;;;22.19;37.79;95406.47;4931220;29;20484;-75
2022/05/13 00:18:23;;;;;;;19.40;7.50;;;;;;;22.08;38.04;95405.22;4932204;29;20455;-74
2022/05/13 00:20:50;;;;;;;10.30;8.10;;;;;;;22.24;37.36;95400.97;4946589;29;20449;-71
2022/05/13 00:23:18;;;;;;;16.03;8.27;;;;;;;22.02;37.91;95401.91;4942354;29;20449;-76
2022/05/13 00:25:45;;;;;;;13.43;8.10;;;;;;;21.82;38.01;95407.13;4914110;29;20878;-75
2022/05/13 00:28:13;;;;;;;13.93;7.57;;;;;;;21.79;38.16;95387.16;4931446;29;20449;-73
2022/05/13 00:30:45;;;;;;;14.37;8.30;;;;;;;21.87;38.41;95404.28;4930961;29;20451;-76
2022/05/13 00:33:12;;;;;;;20.30;7.83;;;;;;;21.81;38.49;95410.88;4930410;29;20235;-73
2022/05/13 00:35:39;;;;;;;17.47;9.00;;;;;;;21.89;39.20;95408.22;4930594;29;20880;-74
2022/05/13 00:38:07;;;;;;;16.40;9.07;;;;;;;21.55;39.45;95402.03;4930501;29;20448;-79
2022/05/13 00:40:35;;;;;;;16.33;9.60;;;;;;;21.53;40.13;95409.56;4930771;29;20884;-73
2022/05/13 00:43:08;;;;;;;14.50;9.17;;;;;;;20.67;41.48;95413.78;4930217;29;20448;-70
2022/05/13 00:45:36;;;;;;;14.70;8.87;;;;;;;20.92;41.20;95421.88;4930670;29;20539;-77
2022/05/13 00:48:03;;;;;;;18.60;9.57;;;;;;;20.91;40.74;95414.22;4930873;29;20420;-74
2022/05/13 00:50:34;;;;;;;19.20;8.80;;;;;;;20.51;41.17;95416.03;4916983;29;20519;-69
2022/05/13 00:53:02;;;;;;;15.30;9.07;;;;;;;20.54;41.19;95419.97;4933810;29;20462;-72
2022/05/13 00:55:41;;;;;;;12.63;8.10;;;;;;;19.97;42.18;95416.25;4933775;29;20452;-75
2022/05/13 00:58:17;;;;;;;14.43;8.80;;;;;;;19.72;42.93;95419.50;4934061;29;20458;-71
2022/05/13 01:00:44;;;;;;;16.53;9.30;;;;;;;19.97;42.42;95417.03;4933728;29;20451;-77
2022/05/13 01:03:12;;;;;;;17.00;9.03;;;;;;;19.69;43.18;95409.47;4933888;29;20515;-74
2022/05/13 01:05:43;;;;;;;16.70;9.00;;;;;;;20.27;41.84;95420.09;4933288;29;20483;-72
2022/05/13 01:08:11;;;;;;;17.43;9.03;;;;;;;20.48;41.46;95416.63;4933530;29;20970;-75
2022/05/13 01:10:40;;;;;;;11.30;9.30;;;;;;;20.63;41.29;95424.25;4933463;29;20482;-77
2022/05/13 01:13:11;;;;;;;12.53;9.20;;;;;;;20.86;40.78;95412.44;4934425;29;20463;-73
2022/05/13 01:15:41;;;;;;;12.07;8.17;;;;;;;19.72;43.06;95427.47;4896124;29;1124696;-70
2022/05/13 01:18:10;;;;;;;13.97;9.27;;;;;;;20.15;42.24;95412.63;4918077;29;20650;-73
2022/05/13 01:20:48;;;;;;;14.63;9.03;;;;;;;20.25;42.10;95412.44;4934069;29;20583;-75
2022/05/13 01:23:17;;;;;;;10.87;8.53;;;;;;;19.53;43.67;95416.16;4934546;29;20458;-74
2022/05/13 01:25:48;;;;;;;11.20;8.40;;;;;;;19.73;43.02;95413.88;4934294;29;20516;-72
2022/05/13 01:28:19;;;;;;;10.13;8.70;;;;;;;19.97;42.12;95416.25;4934452;29;20452;-74
2022/05/13 01:30:49;;;;;;;17.10;9.20;;;;;;;19.91;41.99;95417.44;4933947;29;20448;-73
2022/05/13 01:33:17;;;;;;;15.17;8.73;;;;;;;20.02;41.77;95413.47;4934507;29;20448;-76
2022/05/13 01:35:47;;;;;;;13.23;9.13;;;;;;;20.22;41.47;95412.25;4933902;29;20487;-73
2022/05/13 01:38:16;;;;;;;16.10;8.77;;;;;;;20.14;41.43;95409.16;4917038;29;20870;-76
2022/05/13 01:40:43;;;;;;;12.57;8.37;;;;;;;20.39;41.23;95418.47;4934422;29;20507;-71
2022/05/13 01:43:10;;;;;;;15.67;8.50;;;;;;;20.27;41.67;95402.28;4934944;29;20552;-78
2022/05/13 01:45:38;;;;;;;15.27;8.97;;;;;;;20.26;41.39;95403.34;4934875;29;20480;-72
2022/05/13 01:48:07;;;;;;;11.97;8.90;;;;;;;20.36;41.41;95403.13;4935555;29;20512;-73
2022/05/13 01:50:34;;;;;;;12.33;8.67;;;;;;;20.50;41.30;95401.16;4934284;29;20448;-74
2022/05/13 01:53:01;;;;;;;11.57;8.73;;;;;;;20.39;41.12;95391.84;4934676;29;20428;-73
2022/05/13 01:55:28;;;;;;;13.53;8.37;;;;;;;20.44;41.26;95394.38;4934821;29;20511;-73
2022/05/13 01:57:55;;;;;;;12.97;8.90;;;;;;;20.57;40.76;95382.88;4935654;29;20543;-71
2022/05/13 02:00:23;;;;;;;14.33;9.03;;;;;;;20.44;41.50;95375.75;4940025;29;20456;-72
2022/05/13 02:05:36;;;;;;;18.80;9.77;;;;;;;20.44;41.11;95377.59;4933024;29;20484;-72
2022/05/13 02:08:03;;;;;;;15.57;9.07;;;;;;;20.63;41.12;95381.66;4916416;29;20860;-72
2022/05/13 02:10:30;;;;;;;14.30;9.20;;;;;;;20.57;40.91;95390.84;4933378;29;20448;-73
2022/05/13 02:12:57;;;;;;;14.80;8.97;;;;;;;20.35;41.24;95385.56;4933986;29;20486;-78
2022/05/13 02:15:24;;;;;;;15.97;9.50;;;;;;;19.87;42.46;95382.69;4933163;29;20503;-74
2022/05/13 02:17:51;;;;;;;19.17;9.43;;;;;;;20.23;41.89;95392.53;4933564;29;20486;-74
2022/05/13 02:20:18;;;;;;;18.30;9.40;;;;;;;20.24;41.68;95408.19;4933453;29;20448;-73
2022/05/13 02:22:45;;;;;;;12.73;9.20;;;;;;;20.08;41.43;95402.44;4933710;29;21051;-76
2022/05/13 02:25:12;;;;;;;19.87;9.77;;;;;;;20.08;41.74;95410.41;4933546;29;20508;-74
2022/05/13 02:27:39;;;;;;;16.57;9.50;;;;;;;20.14;42.17;95406.50;4933350;29;21335;-74
2022/05/13 02:30:07;;;;;;;13.80;9.77;;;;;;;20.03;41.91;95410.53;4933717;29;20836;-79
2022/05/13 02:32:34;;;;;;;11.80;9.13;;;;;;;19.92;41.96;95398.56;4933697;29;20447;-72
2022/05/13 02:35:02;;;;;;;14.37;9.33;;;;;;;19.46;42.66;95416.59;4933376;29;20443;-75
2022/05/13 02:37:29;;;;;;;11.70;8.97;;;;;;;19.03;43.71;95397.50;4933844;29;20481;-71
2022/05/13 02:39:56;;;;;;;12.77;9.17;;;;;;;19.89;42.02;95415.09;4933121;29;20454;-71
2022/05/13 02:42:23;;;;;;;15.93;9.33;;;;;;;19.90;42.04;95407.91;4932876;29;20456;-71
2022/05/13 02:44:50;;;;;;;19.93;9.73;;;;;;;19.23;43.06;95416.78;4932920;29;20452;-70
2022/05/13 02:47:17;;;;;;;14.37;8.37;;;;;;;19.01;43.91;95420.13;4932823;29;20579;-80
2022/05/13 02:49:44;;;;;;;17.37;8.93;;;;;;;19.07;43.09;95413.63;4933076;29;20556;-76
2022/05/13 02:52:11;;;;;;;16.03;9.70;;;;;;;19.17;42.92;95418.75;4933443;29;20463;-80
2022/05/13 02:54:38;;;;;;;16.63;8.53;;;;;;;19.32;42.85;95420.34;4916303;29;20515;-69
2022/05/13 02:57:05;;;;;;;20.70;8.53;;;;;;;19.49;42.45;95431.16;4933163;29;21332;-73
2022/05/13 02:59:32;;;;;;;23.47;9.33;;;;;;;19.39;42.38;95423.38;4933684;29;20463;-72
2022/05/13 03:01:59;;;;;;;16.93;8.77;;;;;;;19.33;42.58;95424.56;4932907;29;20523;-78
2022/05/13 03:04:26;;;;;;;16.30;9.33;;;;;;;19.36;42.42;95419.44;4933390;29;20448;-74
2022/05/13 03:06:53;;;;;;;15.63;9.07;;;;;;;19.56;42.37;95420.91;4932814;29;21045;-76
2022/05/13 03:09:20;;;;;;;19.63;9.77;;;;;;;19.39;42.17;95410.09;4938359;29;20826;-73
2022/05/13 03:11:47;;;;;;;20.10;9.73;;;;;;;19.20;43.27;95410.97;4935007;29;20449;-72
2022/05/13 03:14:14;;;;;;;13.33;9.10;;;;;;;19.34;42.82;95429.59;4933854;29;20465;-75
2022/05/13 03:16:40;;;;;;;20.00;8.17;;;;;;;19.30;42.65;95411.84;4934512;29;20452;-69
2022/05/13 03:19:07;;;;;;;16.93;8.90;;;;;;;19.66;41.74;95407.38;4941221;29;20441;-76
2022/05/13 03:21:35;;;;;;;13.63;9.97;;;;;;;19.68;41.99;95419.31;4940979;29;20827;-71
2022/05/13 03:24:03;;;;;;;14.77;9.47;;;;;;;19.72;42.13;95427.47;4933533;29;20987;-76
2022/05/13 03:26:30;;;;;;;23.20;9.60;;;;;;;19.72;41.81;95424.81;4933676;29;20484;-73
2022/05/13 03:28:57;;;;;;;19.13;9.40;;;;;;;19.43;42.49;95432.34;4932650;29;20509;-75
2022/05/13 03:31:24;;;;;;;15.10;9.50;;;;;;;19.78;41.93;95428.94;4931702;29;20440;-74
2022/05/13 03:33:51;;;;;;;11.47;8.13;;;;;;;19.85;41.49;95434.63;4932470;29;21014;-78
2022/05/13 03:36:19;;;;;;;17.27;8.97;;;;;;;19.77;41.24;95437.97;4931750;29;21061;-73
2022/05/13 03:38:46;;;;;;;14.30;8.43;;;;;;;19.93;40.58;95431.22;4932567;29;20560;-72
2022/05/13 03:41:13;;;;;;;12.77;8.00;;;;;;;19.62;40.93;95415.16;4932778;29;20452;-74
2022/05/13 03:43:40;;;;;;;14.80;9.30;;;;;;;19.93;40.79;95432.03;4933401;29;20517;-77
2022/05/13 03:46:07;;;;;;;12.87;8.73;;;;;;;20.03;40.55;95431.03;4932045;29;20480;-71
2022/05/13 03:48:34;;;;;;;17.53;8.83;;;;;;;20.03;40.49;95421.16;4935517;29;20517;-70
2022/05/13 03:51:01;;;;;;;14.00;8.63;;;;;;;19.78;40.88;95435.03;4932385;29;20444;-75
2022/05/13 03:53:28;;;;;;;22.50;9.60;;;;;;;19.80;40.93;95438.16;4937178;29;20456;-74
2022/05/13 03:55:55;;;;;;;15.80;9.40;;;;;;;19.26;42.49;95448.84;4935583;29;20444;-72
2022/05/13 03:58:22;;;;;;;18.93;9.23;;;;;;;19.61;42.28;95450.03;4931816;29;20459;-75
2022/05/13 04:00:51;;;;;;;19.27;9.87;;;;;;;19.93;42.18;95458.63;4931349;29;20448;-75
2022/05/13 04:03:19;;;;;;;18.13;9.73;;;;;;;19.86;41.66;95463.56;4914575;29;20861;-73
2022/05/13 04:11:17;;;;;;;15.00;8.33;;;;;;;19.41;41.73;95466.41;4931853;29;20449;-75
2022/05/13 04:16:50;;;;;;;12.83;8.50;;;;;;;19.40;40.94;95446.22;4884278;29;20546;-76
2022/05/13 04:19:19;;;;;;;12.53;8.07;;;;;;;19.19;41.38;95459.91;4873835;29;20443;-75
2022/05/13 04:21:46;;;;;;;17.47;10.20;;;;;;;18.86;43.23;95458.38;4911234;28;20451;-71
2022/05/13 04:24:16;;;;;;;17.00;9.17;;;;;;;19.42;42.78;95474.06;4952500;28;20897;-73
2022/05/13 04:26:44;;;;;;;21.43;9.40;;;;;;;19.39;44.28;95473.88;4936840;29;20468;-73
2022/05/13 04:29:11;;;;;;;22.33;9.97;;;;;;;19.58;44.08;95482.53;4954844;29;20464;-72
2022/05/13 04:31:41;;;;;;;17.00;9.27;;;;;;;19.46;44.63;95460.97;4953999;29;20447;-75
2022/05/13 04:34:08;;;;;;;23.43;9.57;;;;;;;19.78;43.47;95468.81;4954239;29;20455;-71
2022/05/13 04:36:36;;;;;;;15.50;9.20;;;;;;;20.07;41.26;95471.91;4953823;29;20451;-74
2022/05/13 04:39:04;;;;;;;13.97;8.30;;;;;;;19.53;41.21;95469.34;4954506;29;21052;-76
2022/05/13 04:44:17;;;;;;;45.97;31.37;;;;;;;20.03;40.41;95473.59;4954450;29;20442;-72
2022/05/13 04:46:44;;;;;;;34.07;26.40;;;;;;;20.10;40.97;95479.28;4953940;29;20572;-69
2022/05/13 04:49:11;;;;;;;31.83;23.53;;;;;;;20.34;41.33;95469.16;4953649;29;20447;-64
2022/05/13 04:51:39;;;;;;;15.40;8.47;;;;;;;20.54;40.05;95474.00;4953751;29;20766;-72
2022/05/13 04:54:06;;;;;;;15.77;9.27;;;;;;;20.37;40.53;95479.19;4953664;29;21187;-70
2022/05/13 04:56:33;;;;;;;13.73;7.40;;;;;;;19.87;40.53;95475.00;4951519;29;20454;-72
2022/05/13 04:59:00;;;;;;;13.27;7.63;;;;;;;20.70;39.40;95475.19;4952643;29;20550;-73
2022/05/13 05:01:28;;;;;;;9.23;7.10;;;;;;;20.67;39.00;95473.16;4952855;29;20473;-73
2022/05/13 05:03:55;;;;;;;17.00;8.97;;;;;;;20.65;39.34;95470.00;4953082;29;20447;-72
2022/05/13 05:06:23;;;;;;;14.90;10.93;;;;;;;20.84;39.00;95473.22;4953043;29;20507;-74
2022/05/13 05:08:50;;;;;;;59.80;45.90;;;;;;;20.92;38.61;95480.50;4953028;29;20471;-75
2022/05/13 05:11:18;;;;;;;13.30;9.20;;;;;;;20.98;38.97;95483.81;4953559;29;20447;-70
2022/05/13 05:13:48;;;;;;;10.93;7.53;;;;;;;20.71;40.08;95483.97;4954026;29;20478;-71
2022/05/13 05:16:17;;;;;;;39.07;26.23;;;;;;;20.99;39.26;95488.88;4936029;29;20447;-74
2022/05/13 05:18:44;;;;;;;80.00;70.10;;;;;;;21.10;39.60;95474.19;4953735;29;20436;-76
2022/05/13 05:21:12;;;;;;;27.37;19.33;;;;;;;21.33;39.80;95484.78;4953469;29;20431;-74
2022/05/13 05:23:42;;;;;;;19.37;8.70;;;;;;;21.17;39.35;95475.63;4953220;29;20448;-73
2022/05/13 05:26:10;;;;;;;12.37;8.73;;;;;;;20.35;42.66;95486.69;4952559;29;20471;-74
2022/05/13 05:28:37;;;;;;;16.57;9.13;;;;;;;21.08;41.08;95487.03;4953479;29;20455;-75
2022/05/13 05:31:06;;;;;;;23.77;9.57;;;;;;;21.54;39.89;95488.44;4951973;28;20448;-73
2022/05/13 05:33:33;;;;;;;17.23;9.33;;;;;;;21.45;39.71;95491.09;4950812;29;20436;-75
2022/05/13 05:36:00;;;;;;;17.30;9.93;;;;;;;21.71;39.72;95469.84;4950530;28;20491;-74
2022/05/13 05:38:27;;;;;;;16.47;10.17;;;;;;;21.68;40.26;95481.09;4951998;29;20491;-74
2022/05/13 05:40:55;;;;;;;24.27;10.57;;;;;;;21.61;40.59;95488.78;4951301;29;20446;-76
2022/05/13 05:43:22;;;;;;;16.40;9.60;;;;;;;21.30;41.28;95493.38;4952049;29;20491;-72
2022/05/13 05:45:50;;;;;;;20.80;10.67;;;;;;;20.80;41.75;95480.25;4953276;29;20448;-73
2022/05/13 05:48:22;;;;;;;17.93;10.47;;;;;;;21.27;41.13;95483.34;4952982;28;20196;-72
2022/05/13 05:50:54;;;;;;;19.53;10.67;;;;;;;21.59;40.55;95488.31;4952991;28;20443;-73
2022/05/13 05:58:57;;;;;;;18.90;11.03;;;;;;;21.25;40.87;95473.00;4968332;28;20537;-74
2022/05/13 06:01:24;;;;;;;19.27;10.90;;;;;;;21.66;40.84;95478.00;4971096;28;20199;-71
2022/05/13 06:03:52;;;;;;;19.40;11.37;;;;;;;21.62;41.17;95455.69;4972426;28;21239;-72
2022/05/13 06:06:19;;;;;;;21.37;12.87;;;;;;;21.43;41.61;95484.50;4970845;28;22246;-73
2022/05/13 06:08:46;;;;;;;26.80;11.53;;;;;;;21.78;40.61;95465.63;4954220;28;20686;-74
2022/05/13 06:11:13;;;;;;;19.53;12.30;;;;;;;22.01;40.54;95468.94;4934552;29;20925;-71
2022/05/13 06:13:40;;;;;;;22.50;11.67;;;;;;;22.25;39.54;95474.63;4952910;29;20196;-73
2022/05/13 06:16:07;;;;;;;21.13;11.10;;;;;;;22.41;39.52;95474.94;4952254;29;20435;-74
2022/05/13 06:18:36;;;;;;;26.53;11.83;;;;;;;22.25;40.36;95471.94;4952971;29;20596;-72
2022/05/13 06:21:03;;;;;;;20.93;11.40;;;;;;;22.66;39.12;95450.88;4952552;29;20204;-73
2022/05/13 06:23:31;;;;;;;14.70;11.30;;;;;;;22.96;38.31;95463.22;4941624;28;20685;-73
2022/05/13 06:25:58;;;;;;;23.47;11.70;;;;;;;23.08;38.63;95460.66;4960436;28;21043;-69
2022/05/13 06:28:25;;;;;;;23.80;11.20;;;;;;;23.24;37.44;95449.44;4971012;28;20234;-72
2022/05/13 06:30:52;;;;;;;24.03;11.80;;;;;;;23.31;37.68;95457.78;4971869;28;20670;-73
2022/05/13 06:33:19;;;;;;;25.50;11.23;;;;;;;22.91;38.88;95455.38;4971221;28;20226;-73
2022/05/13 06:35:46;;;;;;;24.23;10.20;;;;;;;22.81;40.04;95442.34;4962519;28;20196;-71
2022/05/13 06:38:20;;;;;;;22.27;10.30;;;;;;;23.47;38.36;95440.88;4952224;29;20574;-72
2022/05/13 06:40:51;;;;;;;17.63;10.00;;;;;;;23.34;37.40;95446.47;4937219;28;20233;-71
2022/05/13 06:43:18;;;;;;;26.00;10.47;;;;;;;23.39;38.28;95444.38;4962136;28;20279;-74
2022/05/13 06:45:45;;;;;;;19.37;9.97;;;;;;;23.23;38.24;95440.63;4973103;28;20208;-71
2022/05/13 06:48:12;;;;;;;22.87;9.97;;;;;;;23.71;36.67;95435.69;4958594;28;20227;-70
2022/05/13 06:50:43;;;;;;;18.33;9.13;;;;;;;23.60;36.90;95439.06;4960090;28;20222;-73
2022/05/13 06:53:11;;;;;;;21.97;9.77;;;;;;;23.16;37.33;95443.03;4963333;28;20234;-75
2022/05/13 06:55:42;;;;;;;27.17;9.97;;;;;;;23.24;37.08;95441.41;4970771;28;20199;-71
2022/05/13 06:58:09;;;;;;;23.57;9.93;;;;;;;24.24;35.33;95431.53;4971207;28;20297;-71
2022/05/13 07:00:36;;;;;;;21.90;9.63;;;;;;;24.28;35.63;95429.78;4970884;28;20195;-71
2022/05/13 07:03:04;;;;;;;19.60;9.10;;;;;;;24.23;35.40;95425.44;4971016;28;20246;-72
2022/05/13 07:05:32;;;;;;;18.03;8.50;;;;;;;23.83;36.71;95432.31;4970725;28;20318;-70
2022/05/13 07:07:59;;;;;;;14.83;7.93;;;;;;;24.07;36.34;95422.53;4971100;28;20238;-71
2022/05/13 07:10:29;;;;;;;21.43;7.93;;;;;;;24.01;35.87;95423.09;4971525;28;20654;-71
2022/05/13 07:12:56;;;;;;;17.27;8.33;;;;;;;24.22;34.52;95413.13;4936843;28;20196;-72
2022/05/13 07:15:23;;;;;;;27.17;8.03;;;;;;;23.91;37.14;95418.06;4963432;28;20334;-71
2022/05/13 07:17:49;;;;;;;25.37;8.23;;;;;;;24.24;36.28;95424.28;4967211;28;20199;-75
2022/05/13 07:20:17;;;;;;;18.63;8.77;;;;;;;24.33;35.47;95406.25;4964045;28;20326;-74
2022/05/13 07:22:44;;;;;;;16.93;8.23;;;;;;;24.93;33.44;95425.22;4946158;28;20199;-69
2022/05/13 07:25:11;;;;;;;14.57;8.37;;;;;;;24.21;33.87;95416.94;4961350;28;20203;-71
2022/05/13 07:27:38;;;;;;;20.20;8.40;;;;;;;24.43;35.00;95413.91;4958391;28;20270;-70
2022/05/13 07:30:05;;;;;;;15.10;8.27;;;;;;;25.14;34.21;95417.09;4967061;28;20203;-70
2022/05/13 07:32:33;;;;;;;22.70;8.90;;;;;;;24.30;35.04;95409.59;4970529;28;20642;-70
2022/05/13 07:34:59;;;;;;;17.20;8.67;;;;;;;24.46;34.73;95415.91;4970005;28;20214;-70
2022/05/13 07:37:26;;;;;;;15.07;8.83;;;;;;;24.87;34.62;95407.75;4969974;28;20201;-72
2022/05/13 07:42:40;;;;;;;16.10;8.23;;;;;;;25.37;33.77;95398.63;4950975;29;20203;-72
2022/05/13 07:45:11;;;;;;;18.17;8.37;;;;;;;24.98;34.54;95381.31;4950582;29;20595;-72
2022/05/13 07:47:57;;;;;;;24.00;8.37;;;;;;;25.09;33.32;95388.56;4951130;29;20242;-71
2022/05/13 07:50:24;;;;;;;12.80;7.27;;;;;;;25.16;34.04;95395.28;4950556;28;20784;-71
2022/05/13 07:52:53;;;;;;;17.27;7.73;;;;;;;25.24;34.97;95370.22;4969240;28;20191;-71
2022/05/13 07:55:19;;;;;;;14.67;7.77;;;;;;;25.81;33.06;95393.13;4969341;28;20193;-71
2022/05/13 07:57:47;;;;;;;16.20;7.90;;;;;;;25.81;33.46;95395.03;4966902;28;20192;-71
2022/05/13 08:00:32;;;;;;;15.10;7.17;;;;;;;25.41;34.38;95388.81;4957750;28;20258;-73
2022/05/13 08:03:15;;;;;;;13.47;7.33;;;;;;;25.29;33.68;95388.81;4971051;28;20198;-74
2022/05/13 08:05:57;;;;;;;12.80;7.37;;;;;;;25.22;32.84;95294.72;4939412;28;20232;-72
2022/05/13 08:08:30;;;;;;;16.10;7.50;;;;;;;25.86;32.39;95384.03;4950548;29;20450;-72
2022/05/13 08:11:01;;;;;;;14.70;7.83;;;;;;;26.36;31.61;95376.28;4950651;29;20243;-71
2022/05/13 08:13:31;;;;;;;17.73;7.70;;;;;;;25.68;32.05;95378.16;4950816;29;20698;-72
2022/05/13 08:15:58;;;;;;;13.13;7.80;;;;;;;25.64;31.78;95382.63;4952703;28;20341;-69
2022/05/13 08:18:25;;;;;;;12.13;8.17;;;;;;;26.50;31.19;95370.50;4969918;28;20211;-72
2022/05/13 08:20:52;;;;;;;15.73;6.90;;;;;;;26.31;31.39;95373.88;4969621;28;20230;-71
2022/05/13 08:23:20;;;;;;;13.03;6.90;;;;;;;26.98;30.66;95365.66;4970301;28;20270;-70
2022/05/13 08:25:47;;;;;;;18.20;7.77;;;;;;;26.65;31.16;95361.69;4969553;28;20191;-71
2022/05/13 08:28:16;;;;;;;12.57;7.27;;;;;;;26.29;30.94;95368.03;4969708;28;20834;-71
2022/05/13 08:30:46;;;;;;;12.90;7.00;;;;;;;27.06;30.42;95357.75;4952276;28;20206;-71
2022/05/13 08:33:13;;;;;;;16.37;7.07;;;;;;;26.85;31.33;95345.34;4970016;28;20634;-71
2022/05/13 08:35:46;;;;;;;20.70;7.17;;;;;;;27.28;30.79;95346.34;4969096;28;20686;-71
2022/05/13 08:38:18;;;;;;;14.37;7.77;;;;;;;27.02;31.33;95355.72;4970106;28;20287;-71
2022/05/13 08:40:52;;;;;;;11.63;6.97;;;;;;;27.59;30.07;95340.94;4969143;28;20176;-71
2022/05/13 08:43:27;;;;;;;14.00;6.93;;;;;;;27.58;29.86;95337.44;4952571;28;20914;-71
2022/05/13 08:45:59;;;;;;;18.30;7.63;;;;;;;27.94;29.07;95330.91;4968380;28;20772;-72
2022/05/13 08:48:39;;;;;;;10.57;6.63;;;;;;;27.71;29.30;95338.09;4967044;28;20235;-70
2022/05/13 08:51:24;;;;;;;11.47;7.20;;;;;;;27.94;28.89;95329.00;4966890;28;20193;-71
2022/05/13 08:54:06;;;;;;;10.80;6.53;;;;;;;27.42;30.70;95328.66;4950737;28;20636;-70
2022/05/13 08:56:35;;;;;;;17.93;6.57;;;;;;;27.70;29.27;95325.78;4962419;28;20634;-73
2022/05/13 08:59:13;;;;;;;10.17;6.87;;;;;;;27.33;28.72;95327.28;4956552;28;20199;-72
2022/05/13 09:01:55;;;;;;;23.07;6.73;;;;;;;27.76;28.44;95297.41;4953859;28;20203;-72
2022/05/13 09:04:36;;;;;;;8.73;6.00;;;;;;;28.01;28.24;95320.25;4950342;29;20208;-71
2022/05/13 09:07:06;;;;;;;17.23;6.33;;;;;;;28.26;28.69;95318.84;4938601;28;20223;-71
2022/05/13 09:09:44;;;;;;;8.87;5.80;;;;;;;28.66;28.20;95307.66;4959082;28;20730;-72
2022/05/13 09:12:24;;;;;;;12.73;5.60;;;;;;;28.62;27.69;95302.19;4972482;28;20215;-72
2022/05/13 09:15:08;;;;;;;11.37;5.30;;;;;;;28.93;28.40;95307.34;4972953;28;20617;-72
2022/05/13 09:17:42;;;;;;;13.87;6.03;;;;;;;28.69;27.48;95312.31;4955614;28;20650;-71
2022/05/13 09:20:13;;;;;;;10.77;5.90;;;;;;;28.51;27.61;95308.50;4972590;28;20190;-70
2022/05/13 09:22:52;;;;;;;9.57;5.53;;;;;;;28.88;26.01;95298.75;4973417;28;20215;-71
2022/05/13 09:25:26;;;;;;;9.27;5.73;;;;;;;28.81;26.26;95288.63;4972239;28;20203;-72
2022/05/13 09:28:00;;;;;;;7.43;5.50;;;;;;;28.87;25.75;95297.97;4972681;28;20246;-71
2022/05/13 09:30:39;;;;;;;7.00;5.57;;;;;;;29.57;26.22;95286.69;4972345;28;20214;-70
2022/05/13 09:33:30;;;;;;;12.10;6.20;;;;;;;29.46;26.69;95280.34;4972681;28;20650;-70
2022/05/13 09:36:29;;;;;;;10.70;5.87;;;;;;;30.08;25.98;95279.63;4972383;28;20184;-72
2022/05/13 09:39:22;;;;;;;11.00;5.73;;;;;;;29.79;26.50;95261.53;4972671;28;20201;-71
2022/05/13 09:41:52;;;;;;;10.63;5.73;;;;;;;29.91;26.10;95267.47;4972173;28;20669;-72
2022/05/13 09:44:26;;;;;;;8.97;5.73;;;;;;;29.76;25.44;95267.66;4972539;28;20582;-70
2022/05/13 09:47:11;;;;;;;8.93;4.70;;;;;;;29.71;25.04;95259.88;4964317;28;20196;-71
2022/05/13 09:50:00;;;;;;;10.50;5.00;;;;;;;29.85;23.76;95249.25;4953140;28;20196;-71
2022/05/13 09:52:37;;;;;;;8.63;3.93;;;;;;;30.24;23.66;95238.81;4968552;28;20270;-73
2022/05/13 09:55:23;;;;;;;6.57;3.97;;;;;;;30.16;24.24;95237.22;4954988;28;20581;-71
2022/05/13 09:57:52;;;;;;;13.47;5.50;;;;;;;30.63;24.11;95229.97;4972186;28;20258;-69
2022/05/13 10:00:35;;;;;;;9.30;5.97;;;;;;;30.06;24.32;95238.66;4971080;28;20199;-71
2022/05/13 10:03:18;;;;;;;10.13;5.47;;;;;;;29.76;23.88;95241.41;4971974;28;20716;-70
2022/05/13 10:06:02;;;;;;;16.30;5.13;;;;;;;29.84;24.31;95239.56;4972135;28;20848;-70
2022/05/13 10:13:57;;;;;;;5.77;4.67;;;;;;;29.42;24.32;95233.63;4974178;28;20330;-71
2022/05/13 10:14:42;;;;;;;6.57;4.00;;;;;;;30.11;23.58;95200.47;4971085;28;20242;-71
2022/05/13 10:17:22;;;;;;;6.10;3.90;;;;;;;30.24;24.59;95207.16;4945177;28;20634;-70
2022/05/13 10:20:00;;;;;;;4.40;3.83;;;;;;;30.30;23.70;95219.25;4962025;28;20207;-72
2022/05/13 10:22:49;;;;;;;4.90;4.17;;;;;;;31.09;22.80;95203.25;4952577;29;20199;-71
2022/05/13 10:25:20;;;;;;;5.77;3.80;;;;;;;31.00;23.09;95205.50;4951935;29;20290;-71
2022/05/13 10:27:57;;;;;;;7.97;4.50;;;;;;;30.65;23.27;95208.72;4952388;29;20215;-70
2022/05/13 10:30:50;;;;;;;9.40;4.53;;;;;;;31.31;24.03;95202.22;4951721;29;20192;-71
2022/05/13 10:33:26;;;;;;;7.83;4.13;;;;;;;31.59;23.29;95198.84;4952266;29;20275;-69
2022/05/13 10:36:07;;;;;;;5.77;4.13;;;;;;;31.45;24.39;95204.22;4951504;29;20195;-70
2022/05/13 10:39:05;;;;;;;9.77;4.83;;;;;;;31.35;24.05;95204.94;4967584;28;20203;-72
2022/05/13 10:41:46;;;;;;;7.23;4.10;;;;;;;31.41;23.30;95193.38;4967013;28;20210;-70
2022/05/13 10:44:37;;;;;;;5.00;4.23;;;;;;;31.47;22.52;95191.84;4971341;28;20674;-71
2022/05/13 10:47:13;;;;;;;7.57;4.27;;;;;;;31.12;22.66;95186.22;4970626;28;20235;-71
2022/05/13 10:49:43;;;;;;;7.17;4.20;;;;;;;31.27;23.96;95198.69;4971643;28;20288;-70
2022/05/13 10:52:12;;;;;;;9.33;4.93;;;;;;;30.81;24.32;95193.00;4970505;28;20275;-72
2022/05/13 10:55:21;;;;;;;5.70;4.43;;;;;;;31.51;23.77;95181.03;4971323;28;20202;-73
2022/05/13 10:58:13;;;;;;;10.57;4.57;;;;;;;31.58;24.01;95175.63;4953489;28;20263;-70
2022/05/13 11:01:01;;;;;;;17.03;4.70;;;;;;;32.32;23.50;95179.28;4971051;28;20269;-71
2022/05/13 11:03:31;;;;;;;7.33;3.53;;;;;;;31.48;22.42;95176.38;4970726;28;20202;-71
2022/05/13 11:06:06;;;;;;;11.37;4.57;;;;;;;32.01;23.20;95171.16;4970144;28;20299;-71
2022/05/13 11:08:47;;;;;;;6.03;4.10;;;;;;;32.12;22.43;95155.63;4970843;28;20219;-70
2022/05/13 11:11:23;;;;;;;6.13;4.10;;;;;;;31.62;22.59;95165.59;4970444;28;20303;-73
2022/05/13 11:14:15;;;;;;;5.70;3.93;;;;;;;32.00;22.33;95164.16;4970648;28;20198;-70
2022/05/13 11:17:01;;;;;;;8.63;3.80;;;;;;;31.75;22.37;95158.66;4969967;28;20191;-71
2022/05/13 11:19:44;;;;;;;9.03;4.30;;;;;;;31.82;23.08;95153.25;4969019;28;20207;-71
2022/05/13 11:22:29;;;;;;;6.80;3.77;;;;;;;31.75;23.03;95153.25;4969754;28;20205;-72
2022/05/13 11:28:40;;;;;;;9.13;3.60;;;;;;;31.62;23.08;95139.25;4965706;28;20214;-71
2022/05/13 11:31:10;;;;;;;6.30;4.07;;;;;;;32.50;21.11;95139.41;4959167;28;20211;-72
2022/05/13 11:34:14;;;;;;;5.67;4.00;;;;;;;32.78;21.69;95128.53;4947585;28;20286;-72
2022/05/13 11:36:58;;;;;;;6.40;3.80;;;;;;;32.28;22.65;95124.28;4949966;28;20205;-72
2022/05/13 11:39:50;;;;;;;7.67;3.83;;;;;;;31.24;22.51;95125.56;4969925;28;20211;-71
2022/05/13 11:42:30;;;;;;;8.00;3.73;;;;;;;30.92;22.97;95100.28;4969577;28;20218;-71
2022/05/13 11:45:19;;;;;;;6.90;3.70;;;;;;;31.12;22.36;95113.13;4963652;28;20222;-73
2022/05/13 11:47:57;;;;;;;8.57;3.67;;;;;;;31.92;22.71;95113.78;4970333;28;20309;-72
2022/05/13 11:50:29;;;;;;;6.77;4.07;;;;;;;32.20;23.06;95119.25;4969858;28;20202;-72
2022/05/13 11:52:58;;;;;;;10.20;4.83;;;;;;;32.05;23.01;95104.13;4954198;28;20278;-72
2022/05/13 11:55:42;;;;;;;13.83;4.13;;;;;;;31.56;22.82;95085.84;4971981;28;20258;-72
2022/05/13 11:58:46;;;;;;;9.20;4.13;;;;;;;32.03;22.40;95099.09;4972853;28;20329;-73
2022/05/13 12:01:34;;;;;;;8.87;4.60;;;;;;;31.78;22.18;95082.78;4974276;28;20748;-71
2022/05/13 12:04:13;;;;;;;11.43;3.90;;;;;;;32.24;22.40;95099.13;4974023;28;20581;-72
2022/05/13 12:06:50;;;;;;;9.50;4.50;;;;;;;32.42;23.31;95094.47;4959503;28;20266;-71
2022/05/13 12:09:44;;;;;;;9.27;4.40;;;;;;;32.14;23.73;95067.34;4954785;28;20883;-71
2022/05/13 12:12:37;;;;;;;7.20;3.93;;;;;;;32.43;22.01;95090.59;4954756;28;20626;-71
2022/05/13 12:15:20;;;;;;;4.63;3.60;;;;;;;33.19;21.12;95076.44;4950781;28;20239;-72
2022/05/13 12:18:01;;;;;;;7.30;4.20;;;;;;;32.57;21.28;95068.84;4951792;29;20208;-71